createdAt,value
2023-03-27T00:00:38.492Z,13207.8457
2023-03-27T00:01:40.105Z,13215.0000
2023-03-27T00:02:41.958Z,13211.3076
2023-03-27T00:03:43.525Z,13209.4619
2023-03-27T00:04:45.062Z,13210.6924
2023-03-27T00:05:46.733Z,13209.8457
2023-03-27T00:06:48.357Z,13208.0771
2023-03-27T00:07:50.016Z,13210.6152
2023-03-27T00:08:51.657Z,13210.3076
2023-03-27T00:09:53.327Z,13205.4619
2023-03-27T00:10:55.178Z,13210.3076
2023-03-27T00:11:56.617Z,13208.0000
2023-03-27T00:12:58.255Z,13205.5381
2023-03-27T00:13:59.926Z,13210.0000
2023-03-27T00:15:01.537Z,13210.8457
2023-03-27T00:16:03.254Z,13210.5381
2023-03-27T00:17:04.883Z,13210.0771
2023-03-27T00:18:06.552Z,13210.6152
2023-03-27T00:19:08.150Z,13211.9229
2023-03-27T00:20:09.833Z,13210.2305
2023-03-27T00:21:11.513Z,13212.1543
2023-03-27T00:22:13.129Z,13210.3848
2023-03-27T00:23:14.767Z,13210.0000
2023-03-27T00:24:16.435Z,13210.1543
2023-03-27T00:25:18.063Z,13209.9229
2023-03-27T00:26:19.758Z,13211.5381
2023-03-27T00:27:21.371Z,13214.3848
2023-03-27T00:28:23.030Z,13214.1543
2023-03-27T00:29:24.672Z,13213.4619
2023-03-27T00:30:26.325Z,13212.8457
2023-03-27T00:31:28.079Z,13215.3848
2023-03-27T00:32:29.653Z,13211.4619
2023-03-27T00:33:31.300Z,13210.8457
2023-03-27T00:34:32.924Z,13217.9229
2023-03-27T00:35:34.672Z,13210.6152
2023-03-27T00:36:36.248Z,13214.4619
2023-03-27T00:37:37.897Z,13214.4619
2023-03-27T00:38:39.740Z,13211.2305
2023-03-27T00:39:41.222Z,13214.7695
2023-03-27T00:40:42.855Z,13210.5381
2023-03-27T00:41:44.531Z,13213.0771
2023-03-27T00:42:46.152Z,13219.0000
2023-03-27T00:43:47.816Z,13212.3076
2023-03-27T00:44:49.442Z,13216.8457
2023-03-27T00:45:51.126Z,13214.6924
2023-03-27T00:46:52.803Z,13217.8457
2023-03-27T00:47:54.428Z,13216.6924
2023-03-27T00:48:56.047Z,13214.3076
2023-03-27T00:49:57.728Z,13218.0000
2023-03-27T00:50:59.356Z,13213.2305
2023-03-27T00:52:01.058Z,13220.7695
2023-03-27T00:53:02.657Z,13217.6924
2023-03-27T00:54:04.329Z,13218.0000
2023-03-27T00:55:05.985Z,13217.7695
2023-03-27T00:56:07.650Z,13225.2305
2023-03-27T00:57:09.333Z,13221.8457
2023-03-27T00:58:10.946Z,13225.7695
2023-03-27T00:59:12.606Z,13226.1543
2023-03-27T01:00:14.282Z,13226.0771
2023-03-27T01:01:15.904Z,13226.1543
2023-03-27T01:02:17.596Z,13222.8457
2023-03-27T01:03:19.275Z,13220.9229
2023-03-27T01:04:20.849Z,13225.9229
2023-03-27T01:05:22.487Z,13224.8457
2023-03-27T01:06:24.149Z,13223.7695
2023-03-27T01:07:25.788Z,13225.5381
2023-03-27T01:08:27.451Z,13227.5381
2023-03-27T01:09:29.084Z,13229.3848
2023-03-27T01:10:30.753Z,13227.4619
2023-03-27T01:11:32.386Z,13220.3848
2023-03-27T01:12:34.069Z,13223.3076
2023-03-27T01:13:35.693Z,13225.0000
2023-03-27T01:14:37.362Z,13230.1543
2023-03-27T01:15:39.013Z,13230.2305
2023-03-27T01:16:40.663Z,13229.3848
2023-03-27T01:17:42.358Z,13231.2305
2023-03-27T01:18:43.946Z,13230.6152
2023-03-27T01:19:45.594Z,13228.5381
2023-03-27T01:20:47.345Z,13229.0000
2023-03-27T01:21:48.904Z,13233.0000
2023-03-27T01:22:50.599Z,13233.3076
2023-03-27T01:23:59.354Z,13230.7695
2023-03-27T01:24:53.889Z,13229.3848
2023-03-27T01:25:55.500Z,13231.3848
2023-03-27T01:26:57.168Z,13232.8457
2023-03-27T01:27:58.832Z,13230.6924
2023-03-27T01:29:00.477Z,13237.0771
2023-03-27T01:30:02.109Z,13234.9229
2023-03-27T01:31:03.798Z,13235.3076
2023-03-27T01:32:05.414Z,13237.1543
2023-03-27T01:33:07.174Z,13232.6152
2023-03-27T01:34:08.718Z,13236.6152
2023-03-27T01:35:10.398Z,13233.6152
2023-03-27T01:36:12.042Z,13235.0771
2023-03-27T01:37:13.706Z,13232.5381
2023-03-27T01:38:15.355Z,13233.1543
2023-03-27T01:39:17.013Z,13234.5381
2023-03-27T01:40:18.639Z,13235.1543
2023-03-27T01:41:20.316Z,13236.3848
2023-03-27T01:42:21.948Z,13235.6152
2023-03-27T01:43:23.647Z,13232.0771
2023-03-27T01:44:25.247Z,13236.2305
2023-03-27T01:45:26.919Z,13236.8457
2023-03-27T01:46:28.587Z,13237.3076
2023-03-27T01:47:30.237Z,13235.8457
2023-03-27T01:48:31.929Z,13232.6152
2023-03-27T01:49:33.531Z,13235.6924
2023-03-27T01:50:35.152Z,13239.8457
2023-03-27T01:51:36.839Z,13243.3076
2023-03-27T01:52:38.488Z,13243.3848
2023-03-27T01:53:40.294Z,13244.9229
2023-03-27T01:54:41.782Z,13241.5381
2023-03-27T01:55:43.441Z,13244.0000
2023-03-27T01:56:45.091Z,13242.3848
2023-03-27T01:57:48.961Z,13242.3848
2023-03-27T01:58:48.405Z,13243.0771
2023-03-27T01:59:50.061Z,13242.4619
2023-03-27T02:01:04.110Z,13243.0771
2023-03-27T02:01:53.357Z,13244.4619
2023-03-27T02:02:55.009Z,13238.3076
2023-03-27T02:03:56.701Z,13241.6924
2023-03-27T02:04:58.322Z,13247.3848
2023-03-27T02:05:59.962Z,13245.3848
2023-03-27T02:07:01.597Z,13245.2305
2023-03-27T02:08:03.282Z,13243.9229
2023-03-27T02:09:04.911Z,13246.6924
2023-03-27T02:10:06.581Z,13248.0000
2023-03-27T02:11:08.284Z,13242.3076
2023-03-27T02:12:09.946Z,13242.0771
2023-03-27T02:13:11.584Z,13242.4619
2023-03-27T02:14:13.278Z,13243.7695
2023-03-27T02:15:23.659Z,13244.6152
2023-03-27T02:16:16.641Z,13245.0000
2023-03-27T02:17:18.201Z,13246.3076
2023-03-27T02:18:19.881Z,13248.6924
2023-03-27T02:19:21.537Z,13247.6924
2023-03-27T02:20:23.186Z,13248.9229
2023-03-27T02:21:24.846Z,13246.5381
2023-03-27T02:22:38.137Z,13251.4619
2023-03-27T02:23:28.132Z,13248.3848
2023-03-27T02:24:29.867Z,13249.8457
2023-03-27T02:25:31.457Z,13249.0000
2023-03-27T02:26:33.125Z,13249.1543
2023-03-27T02:27:34.743Z,13248.3848
2023-03-27T02:28:36.415Z,13251.0771
2023-03-27T02:29:38.080Z,13253.8457
2023-03-27T02:30:39.735Z,13255.0771
2023-03-27T02:31:41.430Z,13257.6152
2023-03-27T02:32:43.163Z,13254.4619
2023-03-27T02:33:44.681Z,13253.3076
2023-03-27T02:34:46.338Z,13253.5381
2023-03-27T02:35:48.022Z,13252.3848
2023-03-27T02:36:49.646Z,13247.4619
2023-03-27T02:37:51.314Z,13255.2305
2023-03-27T02:38:52.950Z,13254.9229
2023-03-27T02:39:54.638Z,13253.5381
2023-03-27T02:40:56.396Z,13251.8457
2023-03-27T02:41:57.911Z,13256.6152
2023-03-27T02:42:59.577Z,13254.3848
2023-03-27T02:44:01.233Z,13257.4619
2023-03-27T02:45:02.891Z,13256.0000
2023-03-27T02:46:04.625Z,13254.5381
2023-03-27T02:47:06.181Z,13253.0000
2023-03-27T02:48:07.900Z,13255.9229
2023-03-27T02:49:09.484Z,13257.7695
2023-03-27T02:50:11.227Z,13258.5381
2023-03-27T02:51:12.803Z,13255.5381
2023-03-27T02:52:14.464Z,13257.5381
2023-03-27T02:53:16.104Z,13254.0000
2023-03-27T02:54:17.766Z,13259.7695
2023-03-27T02:55:19.426Z,13257.8457
2023-03-27T02:56:21.097Z,13256.4619
2023-03-27T02:57:24.967Z,13254.6924
2023-03-27T02:58:24.391Z,13259.6152
2023-03-27T02:59:26.016Z,13261.3076
2023-03-27T03:00:27.712Z,13255.9229
2023-03-27T03:01:29.365Z,13254.4619
2023-03-27T03:02:31.065Z,13259.6924
2023-03-27T03:03:32.646Z,13257.9229
2023-03-27T03:04:34.307Z,13256.6152
2023-03-27T03:05:35.961Z,13259.0771
2023-03-27T03:06:37.608Z,13260.8457
2023-03-27T03:07:39.248Z,13260.7695
2023-03-27T03:08:40.919Z,13260.7695
2023-03-27T03:09:42.555Z,13256.4619
2023-03-27T03:10:44.241Z,13263.5381
2023-03-27T03:11:45.849Z,13265.0000
2023-03-27T03:12:47.515Z,13266.0000
2023-03-27T03:13:49.147Z,13263.5381
2023-03-27T03:14:50.831Z,13259.8457
2023-03-27T03:15:52.507Z,13261.6152
2023-03-27T03:16:54.177Z,13264.9229
2023-03-27T03:17:55.780Z,13260.2305
2023-03-27T03:18:57.451Z,13257.9229
2023-03-27T03:19:59.069Z,13257.1543
2023-03-27T03:21:00.782Z,13259.4619
2023-03-27T03:22:02.386Z,13260.0000
2023-03-27T03:23:04.056Z,13264.7695
2023-03-27T03:24:05.696Z,13264.5381
2023-03-27T03:25:07.370Z,13256.8457
2023-03-27T03:26:09.022Z,13254.0771
2023-03-27T03:27:10.693Z,13260.2305
2023-03-27T03:28:12.303Z,13257.8457
2023-03-27T03:29:13.972Z,13255.6152
2023-03-27T03:30:16.985Z,13268.3076
2023-03-27T03:31:17.362Z,13266.1543
2023-03-27T03:32:18.916Z,13269.3848
2023-03-27T03:33:20.582Z,13267.0000
2023-03-27T03:34:22.203Z,13265.9004
2023-03-27T03:35:23.898Z,13263.2305
2023-03-27T03:36:25.526Z,13264.2305
2023-03-27T03:37:27.178Z,13271.6152
2023-03-27T03:38:28.815Z,13270.1543
2023-03-27T03:39:30.490Z,13271.1543
2023-03-27T03:40:32.112Z,13269.6924
2023-03-27T03:41:33.804Z,13268.3076
2023-03-27T03:42:35.422Z,13270.7695
2023-03-27T03:43:37.086Z,13273.3848
2023-03-27T03:44:38.741Z,13268.5381
2023-03-27T03:45:40.395Z,13272.6924
2023-03-27T03:46:42.041Z,13272.0000
2023-03-27T03:47:43.725Z,13269.8457
2023-03-27T03:48:45.317Z,13268.8457
2023-03-27T03:49:46.993Z,13269.0771
2023-03-27T03:50:48.623Z,13267.6924
2023-03-27T03:52:03.775Z,13273.2305
2023-03-27T03:52:51.921Z,13272.1543
2023-03-27T03:53:53.586Z,13274.0000
2023-03-27T03:54:55.239Z,13268.3076
2023-03-27T03:55:56.883Z,13272.1543
2023-03-27T03:56:58.557Z,13270.0771
2023-03-27T03:58:00.192Z,13274.3076
2023-03-27T03:59:01.846Z,13276.3076
2023-03-27T04:00:03.504Z,13281.6152
2023-03-27T04:01:05.126Z,13280.9229
2023-03-27T04:02:06.837Z,13277.3076
2023-03-27T04:03:08.640Z,13275.1543
2023-03-27T04:04:10.104Z,13275.6924
2023-03-27T04:05:11.745Z,13278.0771
2023-03-27T04:06:13.419Z,13277.3848
2023-03-27T04:07:15.060Z,13277.7695
2023-03-27T04:08:16.715Z,13278.3076
2023-03-27T04:09:18.341Z,13275.8457
2023-03-27T04:10:20.048Z,13276.1543
2023-03-27T04:11:21.660Z,13277.6152
2023-03-27T04:12:23.353Z,13278.1543
2023-03-27T04:13:24.987Z,13275.6924
2023-03-27T04:14:26.622Z,13274.3076
2023-03-27T04:15:28.266Z,13276.7695
2023-03-27T04:16:29.994Z,13276.3848
2023-03-27T04:17:31.622Z,13276.6152
2023-03-27T04:18:33.367Z,13273.8457
2023-03-27T04:19:34.888Z,13275.0000
2023-03-27T04:20:36.537Z,13274.4619
2023-03-27T04:21:38.158Z,13276.7695
2023-03-27T04:22:39.847Z,13277.4619
2023-03-27T04:23:41.463Z,13261.3848
2023-03-27T04:24:43.140Z,13262.8457
2023-03-27T04:25:44.810Z,13257.5381
2023-03-27T04:26:46.441Z,13248.9229
2023-03-27T04:27:48.088Z,13241.0771
2023-03-27T04:28:49.730Z,13237.6152
2023-03-27T04:29:51.369Z,13241.3848
2023-03-27T04:30:53.038Z,13247.4619
2023-03-27T04:31:54.681Z,13239.7695
2023-03-27T04:32:56.389Z,13242.7695
2023-03-27T04:33:57.977Z,13246.0771
2023-03-27T04:34:59.651Z,13242.5381
2023-03-27T04:36:06.360Z,13233.5381
2023-03-27T04:37:02.958Z,13584.9229
2023-03-27T04:38:04.616Z,13639.3076
2023-03-27T04:39:06.260Z,13565.3076
2023-03-27T04:40:07.892Z,13519.2305
2023-03-27T04:41:09.545Z,13478.2305
2023-03-27T04:42:11.178Z,13462.7695
2023-03-27T04:43:12.887Z,13450.6152
2023-03-27T04:44:14.493Z,13424.5381
2023-03-27T04:45:16.190Z,13393.2305
2023-03-27T04:46:17.825Z,13375.0771
2023-03-27T04:47:19.476Z,13351.8457
2023-03-27T04:48:21.140Z,13336.2305
2023-03-27T04:49:22.780Z,13339.8457
2023-03-27T04:50:24.403Z,13344.4619
2023-03-27T04:51:26.089Z,13348.6924
2023-03-27T04:52:27.725Z,13369.0771
2023-03-27T04:53:29.556Z,13463.0771
2023-03-27T04:54:31.055Z,13421.9229
2023-03-27T04:55:32.680Z,13362.6924
2023-03-27T04:56:34.363Z,13304.1543
2023-03-27T04:57:35.987Z,13452.1543
2023-03-27T04:58:37.945Z,13518.3848
2023-03-27T04:59:39.301Z,13530.5381
2023-03-27T05:00:40.987Z,13516.7695
2023-03-27T05:01:42.606Z,13695.0000
2023-03-27T05:02:44.270Z,13682.0000
2023-03-27T05:03:45.976Z,13646.4619
2023-03-27T05:04:47.551Z,13669.1543
2023-03-27T05:05:49.190Z,13710.3848
2023-03-27T05:06:50.872Z,13690.0000
2023-03-27T05:07:52.580Z,13656.6152
2023-03-27T05:08:54.177Z,13643.8457
2023-03-27T05:09:55.777Z,13629.3076
2023-03-27T05:10:57.712Z,13619.0000
2023-03-27T05:11:59.098Z,13606.8457
2023-03-27T05:13:00.769Z,13590.1543
2023-03-27T05:14:02.426Z,13575.3076
2023-03-27T05:15:04.089Z,13565.3848
2023-03-27T05:16:05.720Z,13563.5381
2023-03-27T05:17:07.374Z,13561.5381
2023-03-27T05:18:09.322Z,13547.1543
2023-03-27T05:19:10.767Z,13540.4619
2023-03-27T05:20:12.319Z,13542.8457
2023-03-27T05:21:13.974Z,13548.4619
2023-03-27T05:22:15.626Z,13549.3848
2023-03-27T05:23:17.288Z,13540.1543
2023-03-27T05:24:18.931Z,13524.1543
2023-03-27T05:25:20.586Z,13422.0000
2023-03-27T05:26:22.215Z,13303.3848
2023-03-27T05:27:23.923Z,13295.5381
2023-03-27T05:28:25.525Z,13295.3076
2023-03-27T05:29:27.232Z,13343.9229
2023-03-27T05:30:28.927Z,13361.1543
2023-03-27T05:31:30.573Z,13391.9229
2023-03-27T05:32:32.170Z,13409.6924
2023-03-27T05:33:33.785Z,13417.4619
2023-03-27T05:34:35.496Z,13373.6152
2023-03-27T05:35:37.125Z,13355.6152
2023-03-27T05:36:38.773Z,13339.2305
2023-03-27T05:37:40.405Z,13314.0000
2023-03-27T05:38:42.064Z,13278.4619
2023-03-27T05:39:43.732Z,13285.6152
2023-03-27T05:40:45.374Z,13319.3076
2023-03-27T05:41:47.005Z,13353.2305
2023-03-27T05:42:48.674Z,13379.5381
2023-03-27T05:43:51.241Z,13394.7695
2023-03-27T05:44:51.996Z,13403.6152
2023-03-27T05:45:53.626Z,13414.3076
2023-03-27T05:46:55.291Z,13417.4619
2023-03-27T05:47:56.991Z,13418.6152
2023-03-27T05:48:58.592Z,13416.6924
2023-03-27T05:50:00.249Z,13422.8457
2023-03-27T05:51:01.903Z,13425.0771
2023-03-27T05:52:03.510Z,13422.3076
2023-03-27T05:53:05.200Z,13421.8457
2023-03-27T05:54:06.809Z,13413.6152
2023-03-27T05:55:08.523Z,13402.6152
2023-03-27T05:56:10.116Z,13400.6924
2023-03-27T05:57:11.914Z,13400.6152
2023-03-27T05:58:13.462Z,13395.7695
2023-03-27T05:59:15.077Z,13403.5381
2023-03-27T06:00:16.762Z,13407.4619
2023-03-27T06:01:18.388Z,13412.3076
2023-03-27T06:02:21.517Z,13410.1543
2023-03-27T06:03:21.876Z,13404.9229
2023-03-27T06:04:23.358Z,13407.6152
2023-03-27T06:05:25.023Z,13410.1543
2023-03-27T06:06:26.637Z,13411.3848
2023-03-27T06:07:28.305Z,13403.8457
2023-03-27T06:08:29.933Z,13404.2305
2023-03-27T06:09:31.583Z,13412.5381
2023-03-27T06:10:33.250Z,13419.4619
2023-03-27T06:11:34.889Z,13421.7695
2023-03-27T06:12:36.526Z,13427.7695
2023-03-27T06:13:38.260Z,13428.5381
2023-03-27T06:14:39.906Z,13427.7695
2023-03-27T06:15:41.635Z,13429.2305
2023-03-27T06:16:43.201Z,13430.4619
2023-03-27T06:17:44.894Z,13427.7695
2023-03-27T06:18:46.498Z,13430.1543
2023-03-27T06:19:48.184Z,13434.1543
2023-03-27T06:20:49.815Z,13431.0000
2023-03-27T06:21:51.460Z,13434.2305
2023-03-27T06:22:53.104Z,13433.3848
2023-03-27T06:23:54.763Z,13431.0771
2023-03-27T06:24:56.389Z,13432.3848
2023-03-27T06:25:58.378Z,13431.4619
2023-03-27T06:26:59.691Z,13430.3848
2023-03-27T06:28:01.364Z,13430.6152
2023-03-27T06:29:08.142Z,13429.3848
2023-03-27T06:30:04.676Z,13429.6924
2023-03-27T06:31:06.355Z,13429.0000
2023-03-27T06:32:07.981Z,13428.6152
2023-03-27T06:33:09.621Z,13429.3076
2023-03-27T06:34:11.284Z,13430.3076
2023-03-27T06:35:12.896Z,13429.6152
2023-03-27T06:36:14.625Z,13427.7695
2023-03-27T06:37:16.181Z,13426.5381
2023-03-27T06:38:17.862Z,13427.8457
2023-03-27T06:39:19.479Z,13431.4619
2023-03-27T06:40:21.139Z,13428.8457
2023-03-27T06:41:22.802Z,13431.6152
2023-03-27T06:42:24.445Z,13432.0771
2023-03-27T06:43:26.075Z,13433.5381
2023-03-27T06:44:27.738Z,13435.0771
2023-03-27T06:45:29.393Z,13433.2305
2023-03-27T06:46:42.688Z,13435.6924
2023-03-27T06:47:36.382Z,13431.0771
2023-03-27T06:48:34.366Z,13433.3848
2023-03-27T06:49:35.975Z,13438.3076
2023-03-27T06:50:37.629Z,13439.1543
2023-03-27T06:51:39.281Z,13437.1543
2023-03-27T06:52:40.928Z,13436.4619
2023-03-27T06:53:42.558Z,13438.9229
2023-03-27T06:54:44.216Z,13438.0000
2023-03-27T06:55:45.868Z,13438.9229
2023-03-27T06:56:47.610Z,13439.3848
2023-03-27T06:57:49.166Z,13439.6152
2023-03-27T06:58:50.836Z,13438.6924
2023-03-27T06:59:52.488Z,13438.6152
2023-03-27T07:00:54.129Z,13439.1543
2023-03-27T07:01:55.830Z,13441.6152
2023-03-27T07:02:57.420Z,13442.5381
2023-03-27T07:03:59.065Z,13440.0771
2023-03-27T07:05:04.649Z,13443.2305
2023-03-27T07:06:02.556Z,13441.3076
2023-03-27T07:07:04.049Z,13441.8457
2023-03-27T07:08:18.997Z,13443.2305
2023-03-27T07:09:07.318Z,13444.6152
2023-03-27T07:10:08.962Z,13440.9229
2023-03-27T07:11:12.266Z,13441.8457
2023-03-27T07:12:12.278Z,13441.3848
2023-03-27T07:13:13.919Z,13441.2305
2023-03-27T07:14:15.589Z,13440.9229
2023-03-27T07:15:17.295Z,13444.7695
2023-03-27T07:16:18.892Z,13443.6152
2023-03-27T07:17:20.532Z,13440.8457
2023-03-27T07:18:22.216Z,13439.8457
2023-03-27T07:19:23.822Z,13439.1543
2023-03-27T07:20:25.473Z,13442.0000
2023-03-27T07:21:27.137Z,13439.3848
2023-03-27T07:22:28.799Z,13440.6924
2023-03-27T07:23:30.435Z,13441.6152
2023-03-27T07:24:32.060Z,13442.6924
2023-03-27T07:25:33.744Z,13437.0771
2023-03-27T07:26:35.354Z,13442.3076
2023-03-27T07:27:37.063Z,13441.9229
2023-03-27T07:28:38.729Z,13440.0000
2023-03-27T07:29:40.337Z,13439.6924
2023-03-27T07:30:41.983Z,13439.3076
2023-03-27T07:31:57.525Z,13436.8457
2023-03-27T07:32:45.408Z,13440.9229
2023-03-27T07:33:47.068Z,13443.3076
2023-03-27T07:34:48.579Z,13442.1543
2023-03-27T07:35:50.256Z,13438.5381
2023-03-27T07:36:51.894Z,13441.7695
2023-03-27T07:37:53.579Z,13438.3076
2023-03-27T07:38:55.184Z,13440.3848
2023-03-27T07:39:56.847Z,13442.6924
2023-03-27T07:40:58.504Z,13441.3076
2023-03-27T07:42:00.164Z,13440.3848
2023-03-27T07:43:01.834Z,13442.6924
2023-03-27T07:44:03.464Z,13443.2305
2023-03-27T07:45:05.090Z,13443.2305
2023-03-27T07:46:06.803Z,13438.4619
2023-03-27T07:47:08.397Z,13440.8457
2023-03-27T07:48:10.087Z,13441.2305
2023-03-27T07:49:11.685Z,13438.0771
2023-03-27T07:50:13.380Z,13442.2305
2023-03-27T07:51:14.982Z,13441.1543
2023-03-27T07:52:16.738Z,13438.6924
2023-03-27T07:53:32.806Z,13429.8457
2023-03-27T07:54:19.945Z,13433.7695
2023-03-27T07:55:21.582Z,13430.7695
2023-03-27T07:56:23.276Z,13426.9229
2023-03-27T07:57:25.041Z,13436.2305
2023-03-27T07:58:26.857Z,13442.8457
2023-03-27T07:59:28.197Z,13437.1543
2023-03-27T08:00:29.980Z,13440.0771
2023-03-27T08:01:31.480Z,13440.7695
2023-03-27T08:02:33.188Z,13438.6924
2023-03-27T08:03:34.922Z,13438.3076
2023-03-27T08:04:36.584Z,13436.6152
2023-03-27T08:05:38.080Z,13436.1543
2023-03-27T08:06:39.751Z,13435.9229
2023-03-27T08:07:41.389Z,13436.6924
2023-03-27T08:08:43.092Z,13441.4619
2023-03-27T08:09:44.697Z,13436.3848
2023-03-27T08:10:46.361Z,13438.6924
2023-03-27T08:11:48.010Z,13437.6152
2023-03-27T08:12:49.668Z,13438.6152
2023-03-27T08:13:51.330Z,13436.7695
2023-03-27T08:14:52.968Z,13440.0000
2023-03-27T08:15:54.750Z,13440.1543
2023-03-27T08:17:08.648Z,13440.2305
2023-03-27T08:17:57.937Z,13439.0000
2023-03-27T08:18:59.640Z,13439.6924
2023-03-27T08:20:01.226Z,13436.7695
2023-03-27T08:21:02.957Z,13437.3076
2023-03-27T08:22:04.501Z,13438.7695
2023-03-27T08:23:06.191Z,13441.0771
2023-03-27T08:24:07.833Z,13440.1543
2023-03-27T08:25:09.502Z,13437.3076
2023-03-27T08:26:11.101Z,13435.7695
2023-03-27T08:27:12.798Z,13435.1543
2023-03-27T08:28:14.433Z,13433.4619
2023-03-27T08:29:16.138Z,13437.0000
2023-03-27T08:30:17.794Z,13436.6924
2023-03-27T08:31:19.487Z,13440.1543
2023-03-27T08:32:21.035Z,13437.1543
2023-03-27T08:33:22.739Z,13436.3076
2023-03-27T08:34:24.397Z,13441.1543
2023-03-27T08:35:26.026Z,13440.6924
2023-03-27T08:36:27.632Z,13440.0000
2023-03-27T08:37:29.265Z,13439.9229
2023-03-27T08:38:30.964Z,13437.3848
2023-03-27T08:39:32.630Z,13440.8457
2023-03-27T08:40:34.219Z,13438.0000
2023-03-27T08:41:35.882Z,13436.5381
2023-03-27T08:42:37.556Z,13438.0000
2023-03-27T08:43:39.142Z,13435.5381
2023-03-27T08:44:40.873Z,13440.0771
2023-03-27T08:45:42.470Z,13439.0000
2023-03-27T08:46:44.136Z,13440.1543
2023-03-27T08:48:48.556Z,13440.5381
2023-03-27T08:49:50.144Z,13440.1543
2023-03-27T08:50:51.817Z,13440.7695
2023-03-27T08:51:53.406Z,13438.7695
2023-03-27T08:52:55.059Z,13439.9229
2023-03-27T08:53:56.719Z,13439.4619
2023-03-27T08:54:58.502Z,13441.0771
2023-03-27T08:56:00.003Z,13441.8457
2023-03-27T08:57:01.759Z,13444.8457
2023-03-27T08:58:03.334Z,13445.9229
2023-03-27T08:59:04.992Z,13441.3848
2023-03-27T09:00:06.650Z,13441.1543
2023-03-27T09:01:08.301Z,13437.3076
2023-03-27T09:02:09.989Z,13440.3848
2023-03-27T09:03:11.721Z,13438.6924
2023-03-27T09:04:13.218Z,13437.5381
2023-03-27T09:05:14.931Z,13438.0771
2023-03-27T09:06:16.567Z,13439.0771
2023-03-27T09:07:18.188Z,13441.9229
2023-03-27T09:08:19.804Z,13440.6152
2023-03-27T09:09:21.461Z,13443.1543
2023-03-27T09:10:23.199Z,13440.7695
2023-03-27T09:11:24.804Z,13441.0771
2023-03-27T09:12:26.430Z,13440.1543
2023-03-27T09:13:28.027Z,13441.6152
2023-03-27T09:14:29.686Z,13439.6152
2023-03-27T09:15:31.384Z,13439.3076
2023-03-27T09:16:33.122Z,13442.3848
2023-03-27T09:17:34.683Z,13441.3076
2023-03-27T09:18:36.316Z,13440.2305
2023-03-27T09:19:37.947Z,13436.0000
2023-03-27T09:20:39.662Z,13437.2305
2023-03-27T09:21:41.229Z,13440.0771
2023-03-27T09:22:42.904Z,13441.1543
2023-03-27T09:23:44.523Z,13437.4619
2023-03-27T09:24:46.236Z,13439.8457
2023-03-27T09:25:47.926Z,13440.9229
2023-03-27T09:27:01.072Z,13443.8457
2023-03-27T09:27:51.132Z,13442.4170
2023-03-27T09:28:52.806Z,13442.3848
2023-03-27T09:30:05.960Z,13443.0000
2023-03-27T09:30:56.226Z,13443.3330
2023-03-27T09:31:57.744Z,13445.1543
2023-03-27T09:32:59.448Z,13442.0000
2023-03-27T09:34:01.001Z,13443.0771
2023-03-27T09:35:02.752Z,13445.4619
2023-03-27T09:36:04.460Z,13444.0771
2023-03-27T09:37:06.056Z,13447.7695
2023-03-27T09:38:07.640Z,13446.3848
2023-03-27T09:39:09.314Z,13447.2305
2023-03-27T09:40:10.954Z,13444.7695
2023-03-27T09:41:12.634Z,13441.8457
2023-03-27T09:42:14.238Z,13443.2305
2023-03-27T09:43:15.920Z,13440.5381
2023-03-27T09:44:17.596Z,13443.7695
2023-03-27T09:45:19.301Z,13440.9229
2023-03-27T09:46:20.933Z,13442.5381
2023-03-27T09:47:22.520Z,13442.3848
2023-03-27T09:48:24.185Z,13443.9229
2023-03-27T09:49:25.814Z,13440.6152
2023-03-27T09:50:27.945Z,13437.3076
2023-03-27T09:51:29.269Z,13438.3076
2023-03-27T09:52:30.711Z,13442.6152
2023-03-27T09:53:32.434Z,13441.7695
2023-03-27T09:54:34.058Z,13442.7695
2023-03-27T09:55:35.717Z,13444.6152
2023-03-27T09:56:37.392Z,13444.5381
2023-03-27T09:57:39.077Z,13440.8457
2023-03-27T09:58:40.678Z,13441.0771
2023-03-27T09:59:42.307Z,13444.0771
2023-03-27T10:00:44.031Z,13441.2305
2023-03-27T10:01:45.632Z,13439.7695
2023-03-27T10:02:47.297Z,13444.9229
2023-03-27T10:03:49.108Z,13441.7695
2023-03-27T10:04:50.548Z,13441.8457
2023-03-27T10:05:52.216Z,13443.7695
2023-03-27T10:06:53.852Z,13441.3848
2023-03-27T10:07:55.522Z,13441.3848
2023-03-27T10:08:57.165Z,13440.4619
2023-03-27T10:09:58.836Z,13439.1543
2023-03-27T10:11:00.485Z,13443.2305
2023-03-27T10:12:02.190Z,13449.0000
2023-03-27T10:13:03.767Z,13446.5381
2023-03-27T10:14:05.454Z,13446.3848
2023-03-27T10:15:07.112Z,13442.5381
2023-03-27T10:16:08.837Z,13442.3848
2023-03-27T10:17:10.450Z,13443.1543
2023-03-27T10:18:12.199Z,13444.4619
2023-03-27T10:19:13.855Z,13448.3848
2023-03-27T10:20:15.491Z,13445.0771
2023-03-27T10:21:17.100Z,13444.1543
2023-03-27T10:22:18.766Z,13449.0771
2023-03-27T10:23:20.359Z,13446.6924
2023-03-27T10:24:22.005Z,13448.3848
2023-03-27T10:25:23.678Z,13450.0000
2023-03-27T10:26:25.343Z,13451.3848
2023-03-27T10:27:26.976Z,13449.0771
2023-03-27T10:28:28.609Z,13450.3848
2023-03-27T10:29:30.262Z,13447.8457
2023-03-27T10:30:31.912Z,13453.2305
2023-03-27T10:31:33.588Z,13453.2305
2023-03-27T10:32:35.268Z,13449.6152
2023-03-27T10:33:36.885Z,13448.4619
2023-03-27T10:34:38.517Z,13439.7695
2023-03-27T10:35:40.179Z,13437.9229
2023-03-27T10:36:41.842Z,13449.3848
2023-03-27T10:37:49.773Z,13451.7695
2023-03-27T10:38:45.132Z,13448.0830
2023-03-27T10:39:46.756Z,13445.6924
2023-03-27T10:40:48.426Z,13447.9229
2023-03-27T10:41:50.067Z,13448.2305
2023-03-27T10:42:51.782Z,13446.2305
2023-03-27T10:43:53.360Z,13449.0000
2023-03-27T10:44:55.030Z,13449.5381
2023-03-27T10:45:56.764Z,13448.3076
2023-03-27T10:46:58.347Z,13444.6152
2023-03-27T10:48:00.038Z,13447.2305
2023-03-27T10:49:01.635Z,13449.0771
2023-03-27T10:50:03.267Z,13445.7695
2023-03-27T10:51:04.945Z,13452.1543
2023-03-27T10:52:06.560Z,13447.2305
2023-03-27T10:53:08.336Z,13446.4619
2023-03-27T10:54:09.902Z,13450.4619
2023-03-27T10:55:11.537Z,13449.3848
2023-03-27T10:56:13.176Z,13446.5381
2023-03-27T10:57:14.868Z,13449.5381
2023-03-27T10:58:16.481Z,13445.7695
2023-03-27T10:59:21.509Z,13448.5381
2023-03-27T11:00:19.763Z,13447.8330
2023-03-27T11:01:21.505Z,13447.2305
2023-03-27T11:02:23.115Z,13451.5381
2023-03-27T11:03:24.807Z,13447.4619
2023-03-27T11:04:26.378Z,13450.2305
2023-03-27T11:05:28.092Z,13449.1543
2023-03-27T11:06:29.698Z,13447.0000
2023-03-27T11:07:31.369Z,13447.4619
2023-03-27T11:08:33.062Z,13452.7695
2023-03-27T11:09:34.708Z,13453.8457
2023-03-27T11:10:36.320Z,13449.8457
2023-03-27T11:11:38.031Z,13450.8457
2023-03-27T11:12:39.608Z,13449.3848
2023-03-27T11:13:41.279Z,13452.2305
2023-03-27T11:14:42.917Z,13453.5381
2023-03-27T11:15:44.608Z,13451.7695
2023-03-27T11:16:46.242Z,13450.1543
2023-03-27T11:17:47.905Z,13449.7695
2023-03-27T11:18:49.573Z,13451.0000
2023-03-27T11:19:51.176Z,13450.4619
2023-03-27T11:20:52.789Z,13445.1543
2023-03-27T11:21:54.485Z,13446.3076
2023-03-27T11:22:56.138Z,13448.1543
2023-03-27T11:23:57.926Z,13443.3076
2023-03-27T11:24:59.429Z,13448.6152